createdAt,value
2019-03-23T00:00:18.310Z,151.78
2019-03-23T00:02:47.076Z,153.53
2019-03-23T00:05:15.659Z,149.70
2019-03-23T00:07:44.408Z,144.02
2019-03-23T00:10:13.012Z,142.10
2019-03-23T00:12:41.672Z,144.02
2019-03-23T00:15:11.987Z,135.47
2019-03-23T00:17:40.657Z,128.20
2019-03-23T00:20:09.656Z,126.20
2019-03-23T00:22:39.951Z,130.32
2019-03-23T00:25:08.599Z,124.65
2019-03-23T00:27:37.227Z,136.15
2019-03-23T00:30:09.073Z,134.95
2019-03-23T00:32:37.604Z,123.42
2019-03-23T00:35:08.060Z,128.47
2019-03-23T00:37:43.383Z,126.55
2019-03-23T00:40:12.021Z,123.90
2019-03-23T00:42:40.615Z,128.07
2019-03-23T00:45:10.031Z,132.18
2019-03-23T00:47:39.384Z,122.10
2019-03-23T00:50:08.931Z,126.47
2019-03-23T00:52:39.029Z,126.87
2019-03-23T00:55:08.460Z,125.80
2019-03-23T00:57:37.073Z,124.47
2019-03-23T01:00:08.726Z,124.38
2019-03-23T01:02:37.343Z,119.35
2019-03-23T01:05:07.466Z,124.78
2019-03-23T01:07:36.060Z,123.35
2019-03-23T01:10:09.436Z,127.02
2019-03-23T01:12:40.890Z,125.40
2019-03-23T01:15:14.158Z,117.50
2019-03-23T01:17:47.824Z,118.93
2019-03-23T01:20:18.123Z,128.00
2019-03-23T01:22:48.918Z,117.10
2019-03-23T01:25:20.963Z,117.37
2019-03-23T01:27:49.542Z,116.93
2019-03-23T01:30:23.042Z,115.80
2019-03-23T01:32:53.803Z,113.70
2019-03-23T01:35:22.268Z,121.53
2019-03-23T01:37:52.004Z,123.53
2019-03-23T01:40:22.867Z,123.17
2019-03-23T01:42:51.720Z,120.57
2019-03-23T01:45:22.045Z,118.15
2019-03-23T01:47:51.800Z,119.87
2019-03-23T01:50:21.056Z,119.63
2019-03-23T01:52:50.449Z,117.75
2019-03-23T01:55:19.720Z,122.40
2019-03-23T01:57:49.001Z,118.77
2019-03-23T02:00:19.467Z,127.40
2019-03-23T02:02:47.752Z,131.52
2019-03-23T02:05:17.999Z,127.35
2019-03-23T02:07:46.629Z,129.35
2019-03-23T02:10:15.756Z,126.27
2019-03-23T02:12:44.248Z,129.20
2019-03-23T02:15:14.213Z,137.25
2019-03-23T02:17:44.438Z,143.57
2019-03-23T02:20:14.426Z,127.40
2019-03-23T02:22:42.969Z,130.75
2019-03-23T02:25:16.825Z,127.22
2019-03-23T02:27:52.884Z,133.35
2019-03-23T02:30:24.236Z,128.50
2019-03-23T02:32:53.998Z,133.82
2019-03-23T02:35:24.017Z,133.47
2019-03-23T02:37:52.471Z,135.80
2019-03-23T02:40:23.609Z,132.57
2019-03-23T02:42:53.304Z,129.07
2019-03-23T02:45:21.769Z,124.67
2019-03-23T02:47:50.331Z,129.97
2019-03-23T02:50:18.795Z,124.15
2019-03-23T02:52:50.016Z,128.60
2019-03-23T02:55:18.590Z,126.85
2019-03-23T02:57:47.103Z,123.67
2019-03-23T03:00:17.164Z,124.90
2019-03-23T03:02:47.353Z,120.55
2019-03-23T03:05:17.025Z,141.80
2019-03-23T03:07:45.472Z,145.80
2019-03-23T03:10:33.396Z,154.13
2019-03-23T03:13:03.017Z,145.25
2019-03-23T03:15:33.049Z,145.92
2019-03-23T03:18:02.699Z,140.05
2019-03-23T03:20:31.631Z,142.80
2019-03-23T03:23:02.974Z,145.50
2019-03-23T03:25:32.288Z,154.10
2019-03-23T03:28:01.123Z,147.50
2019-03-23T03:30:29.748Z,156.37
2019-03-23T03:32:58.305Z,171.18
2019-03-23T03:35:29.139Z,157.00
2019-03-23T03:37:58.461Z,161.73
2019-03-23T03:40:27.192Z,163.83
2019-03-23T03:42:55.713Z,173.72
2019-03-23T03:45:27.591Z,178.40
2019-03-23T03:47:57.303Z,185.60
2019-03-23T03:50:27.608Z,184.25
2019-03-23T03:52:58.679Z,172.22
2019-03-23T03:55:28.401Z,175.35
2019-03-23T03:57:57.020Z,177.30
2019-03-23T04:00:25.496Z,186.35
2019-03-23T04:02:54.018Z,176.22
2019-03-23T04:05:22.543Z,169.32
2019-03-23T04:07:53.611Z,171.25
2019-03-23T04:10:22.099Z,185.13
2019-03-23T04:12:51.130Z,191.85
2019-03-23T04:15:20.849Z,179.50
2019-03-23T04:17:49.685Z,176.07
2019-03-23T04:20:19.736Z,184.85
2019-03-23T04:22:48.232Z,171.30
2019-03-23T04:25:18.610Z,185.50
2019-03-23T04:27:47.226Z,166.43
2019-03-23T04:30:19.572Z,172.30
2019-03-23T04:32:48.060Z,168.75
2019-03-23T04:35:17.813Z,164.15
2019-03-23T04:37:47.555Z,169.07
2019-03-23T04:40:20.407Z,163.60
2019-03-23T04:42:48.856Z,162.97
2019-03-23T04:45:17.724Z,163.03
2019-03-23T04:47:46.518Z,154.32
2019-03-23T04:50:17.459Z,158.30
2019-03-23T04:52:49.265Z,155.85
2019-03-23T04:55:19.443Z,154.87
2019-03-23T04:57:48.018Z,157.62
2019-03-23T05:00:20.831Z,156.57
2019-03-23T05:02:51.395Z,150.35
2019-03-23T05:05:19.870Z,159.72
2019-03-23T05:07:48.336Z,146.87
2019-03-23T05:10:17.751Z,158.05
2019-03-23T05:12:46.224Z,159.63
2019-03-23T05:15:17.840Z,154.55
2019-03-23T05:17:46.728Z,161.65
2019-03-23T05:20:22.792Z,155.20
2019-03-23T05:22:51.269Z,150.40
2019-03-23T05:25:26.807Z,160.37
2019-03-23T05:28:07.699Z,150.50
2019-03-23T05:30:36.156Z,157.65
2019-03-23T05:33:06.298Z,159.93
2019-03-23T05:35:34.898Z,156.17
2019-03-23T05:38:03.395Z,157.47
2019-03-23T05:40:31.864Z,160.05
2019-03-23T05:43:00.371Z,146.02
2019-03-23T05:45:31.105Z,143.07
2019-03-23T05:48:01.135Z,151.85
2019-03-23T05:50:29.666Z,152.00
2019-03-23T05:52:59.487Z,153.15
2019-03-23T05:55:28.191Z,146.95
2019-03-23T05:57:59.666Z,148.13
2019-03-23T06:00:28.240Z,155.78
2019-03-23T06:02:56.730Z,147.75
2019-03-23T06:05:25.226Z,151.02
2019-03-23T06:07:53.815Z,147.40
2019-03-23T06:10:22.316Z,139.77
2019-03-23T06:12:51.574Z,133.05
2019-03-23T06:15:23.107Z,140.07
2019-03-23T06:17:53.032Z,136.12
2019-03-23T06:20:21.546Z,135.70
2019-03-23T06:23:00.783Z,136.37
2019-03-23T06:25:31.414Z,136.37
2019-03-23T06:28:01.203Z,135.40
2019-03-23T06:30:29.729Z,134.65
2019-03-23T06:33:00.586Z,132.37
2019-03-23T06:35:29.075Z,128.68
2019-03-23T06:37:57.792Z,131.95
2019-03-23T06:40:29.065Z,121.57
2019-03-23T06:43:00.102Z,129.93
2019-03-23T06:45:34.049Z,129.97
2019-03-23T06:48:05.381Z,125.70
2019-03-23T06:50:38.200Z,119.90
2019-03-23T06:53:06.640Z,127.60
2019-03-23T06:55:35.396Z,121.10
2019-03-23T06:58:05.419Z,117.35
2019-03-23T07:00:34.686Z,114.82
2019-03-23T07:03:04.752Z,110.75
2019-03-23T07:05:36.726Z,120.30
2019-03-23T07:08:07.529Z,112.37
2019-03-23T07:10:40.195Z,104.92
2019-03-23T07:13:08.689Z,110.32
2019-03-23T07:15:40.614Z,108.25
2019-03-23T07:18:09.866Z,108.03
2019-03-23T07:20:41.638Z,111.42
2019-03-23T07:23:11.751Z,106.47
2019-03-23T07:25:40.882Z,107.03
2019-03-23T07:28:09.452Z,109.67
2019-03-23T07:30:37.990Z,98.15
2019-03-23T07:33:06.558Z,97.70
2019-03-23T07:35:35.052Z,97.05
2019-03-23T07:38:04.893Z,102.85
2019-03-23T07:40:33.713Z,104.65
2019-03-23T07:43:06.230Z,95.07
2019-03-23T07:45:34.693Z,102.42
2019-03-23T07:48:04.753Z,98.37
2019-03-23T07:50:34.235Z,96.08
2019-03-23T07:53:04.794Z,102.27
2019-03-23T07:55:34.178Z,96.57
2019-03-23T07:58:06.213Z,96.55
2019-03-23T08:00:34.767Z,90.47
2019-03-23T08:03:03.552Z,94.40
2019-03-23T08:05:43.026Z,87.42
2019-03-23T08:08:12.662Z,87.02
2019-03-23T08:10:41.150Z,86.40
2019-03-23T08:13:11.920Z,88.82
2019-03-23T08:15:40.458Z,95.57
2019-03-23T08:18:12.109Z,87.10
2019-03-23T08:23:31.349Z,88.70
2019-03-23T08:26:01.915Z,90.17
2019-03-23T08:28:32.372Z,84.75
2019-03-23T08:31:01.500Z,85.67
2019-03-23T08:33:30.096Z,85.42
2019-03-23T08:35:59.872Z,76.85
2019-03-23T08:38:28.307Z,83.25
2019-03-23T08:40:59.109Z,82.00
2019-03-23T08:43:27.587Z,80.90
2019-03-23T08:45:57.537Z,83.25
2019-03-23T08:48:26.862Z,77.97
2019-03-23T08:50:55.323Z,74.07
2019-03-23T08:53:26.005Z,76.75
2019-03-23T08:55:59.317Z,71.05
2019-03-23T08:58:29.487Z,72.58
2019-03-23T09:00:59.075Z,70.92
2019-03-23T09:03:29.843Z,69.47
2019-03-23T09:05:58.307Z,65.65
2019-03-23T09:08:26.783Z,69.67
2019-03-23T09:10:55.337Z,72.78
2019-03-23T09:13:23.796Z,64.87
2019-03-23T09:15:52.251Z,71.92
2019-03-23T09:18:20.744Z,66.97
2019-03-23T09:20:49.368Z,65.37
2019-03-23T09:23:17.839Z,68.28
2019-03-23T09:25:46.324Z,63.98
2019-03-23T09:28:14.781Z,63.35
2019-03-23T09:30:44.892Z,66.07
2019-03-23T09:33:13.456Z,62.50
2019-03-23T09:35:42.587Z,64.85
2019-03-23T09:38:11.039Z,62.90
2019-03-23T09:40:39.523Z,64.03
2019-03-23T09:43:07.979Z,66.47
2019-03-23T09:45:38.395Z,66.07
2019-03-23T09:48:06.888Z,63.92
2019-03-23T09:50:35.348Z,57.70
2019-03-23T09:53:06.120Z,57.75
2019-03-23T09:55:34.678Z,55.75
2019-03-23T09:58:03.143Z,64.27
2019-03-23T10:00:34.269Z,59.30
2019-03-23T10:03:05.136Z,56.85
2019-03-23T10:05:38.109Z,56.88
2019-03-23T10:08:06.900Z,62.60
2019-03-23T10:10:38.664Z,60.73
2019-03-23T10:13:07.854Z,63.63
2019-03-23T10:15:36.319Z,57.62
2019-03-23T10:18:07.743Z,57.05
2019-03-23T10:20:36.258Z,51.98
2019-03-23T10:23:07.052Z,56.58
2019-03-23T10:25:35.531Z,60.63
2019-03-23T10:28:05.007Z,56.90
2019-03-23T10:30:35.857Z,55.70
2019-03-23T10:33:05.004Z,60.44
2019-03-23T10:35:33.766Z,57.73
2019-03-23T10:38:02.433Z,62.43
2019-03-23T10:40:32.660Z,61.10
2019-03-23T10:43:04.790Z,60.35
2019-03-23T10:45:40.051Z,57.05
2019-03-23T10:48:05.480Z,54.98
2019-03-23T10:50:34.535Z,59.35
2019-03-23T10:53:05.736Z,56.68
2019-03-23T10:55:34.250Z,51.40
2019-03-23T10:58:02.781Z,51.20
2019-03-23T11:00:31.279Z,51.58
2019-03-23T11:02:59.831Z,51.63
2019-03-23T11:05:28.306Z,56.28
2019-03-23T11:07:56.799Z,50.73
2019-03-23T11:10:25.335Z,52.40
2019-03-23T11:12:53.889Z,55.27
2019-03-23T11:15:22.621Z,52.10
2019-03-23T11:17:59.602Z,64.35
2019-03-23T11:20:28.227Z,50.58
2019-03-23T11:22:57.926Z,45.60
2019-03-23T11:25:28.644Z,58.68
2019-03-23T11:27:57.128Z,50.70
2019-03-23T11:30:25.612Z,52.88
2019-03-23T11:32:54.119Z,52.60
2019-03-23T11:35:25.569Z,51.60
2019-03-23T11:37:54.501Z,47.45
2019-03-23T11:40:23.177Z,49.97
2019-03-23T11:42:51.707Z,51.28
2019-03-23T11:45:22.499Z,43.75
2019-03-23T11:47:51.043Z,45.55
2019-03-23T11:50:21.190Z,45.63
2019-03-23T11:52:49.681Z,39.45
2019-03-23T11:55:18.156Z,43.85
2019-03-23T11:57:46.780Z,39.70
2019-03-23T12:00:16.651Z,35.23
2019-03-23T12:02:45.193Z,37.73
2019-03-23T12:05:14.315Z,41.95
2019-03-23T12:07:50.368Z,34.08
2019-03-23T12:10:18.825Z,40.03
2019-03-23T12:12:47.489Z,40.85
2019-03-23T12:15:17.864Z,37.77
2019-03-23T12:17:46.367Z,38.25
2019-03-23T12:20:14.984Z,37.80
2019-03-23T12:22:43.501Z,32.58
2019-03-23T12:25:13.092Z,36.03
2019-03-23T12:27:42.361Z,39.55
2019-03-23T12:30:13.828Z,33.17
2019-03-23T12:32:42.333Z,34.13
2019-03-23T12:35:12.234Z,21.00
2019-03-23T12:37:40.855Z,25.57
2019-03-23T12:40:09.764Z,23.27
2019-03-23T12:42:38.284Z,16.37
2019-03-23T12:45:08.545Z,15.13
2019-03-23T12:47:37.298Z,16.62
2019-03-23T12:50:08.321Z,21.55
2019-03-23T12:52:36.900Z,20.12
2019-03-23T12:55:07.837Z,19.42
2019-03-23T12:57:36.506Z,15.50
2019-03-23T13:00:13.994Z,14.87
2019-03-23T13:02:42.567Z,18.23
2019-03-23T13:05:11.092Z,14.25
2019-03-23T13:07:39.803Z,19.52
2019-03-23T13:10:11.372Z,18.87
2019-03-23T13:12:40.010Z,15.18
2019-03-23T13:15:11.705Z,19.95
2019-03-23T13:20:29.168Z,19.15
2019-03-23T13:22:59.042Z,12.68
2019-03-23T13:25:27.582Z,18.77
2019-03-23T13:27:57.591Z,17.70
2019-03-23T13:30:27.403Z,24.23
2019-03-23T13:32:57.413Z,19.40
2019-03-23T13:35:25.942Z,20.40
2019-03-23T13:37:54.738Z,18.23
2019-03-23T13:40:23.447Z,18.67
2019-03-23T13:42:51.910Z,20.75
2019-03-23T13:45:20.384Z,17.27
2019-03-23T13:47:50.375Z,17.98
2019-03-23T13:50:29.606Z,18.67
2019-03-23T13:52:58.221Z,17.67
2019-03-23T13:55:29.370Z,21.93
2019-03-23T13:58:01.057Z,18.50
2019-03-23T14:00:30.083Z,17.90
2019-03-23T14:02:59.940Z,22.32
2019-03-23T14:05:28.610Z,19.17
2019-03-23T14:07:57.123Z,16.85
2019-03-23T14:10:28.010Z,20.30
2019-03-23T14:13:01.352Z,17.10
2019-03-23T14:15:29.921Z,19.73
2019-03-23T14:17:58.465Z,16.67
2019-03-23T14:20:27.181Z,19.98
2019-03-23T14:23:02.597Z,17.80
2019-03-23T14:25:25.907Z,16.55
2019-03-23T14:27:54.560Z,24.63
2019-03-23T14:30:23.264Z,19.87
2019-03-23T14:32:51.813Z,25.07
2019-03-23T14:35:20.386Z,21.33
2019-03-23T14:37:49.081Z,17.42
2019-03-23T14:40:17.565Z,20.50
2019-03-23T14:42:46.156Z,17.23
2019-03-23T14:45:15.861Z,19.52
2019-03-23T14:47:44.339Z,19.62
2019-03-23T14:50:13.084Z,24.03
2019-03-23T14:52:41.587Z,23.32
2019-03-23T14:55:10.153Z,19.62
2019-03-23T14:57:40.538Z,17.10
2019-03-23T15:00:10.924Z,18.62
2019-03-23T15:02:40.771Z,16.17
2019-03-23T15:05:09.436Z,27.42
2019-03-23T15:07:42.519Z,31.05
2019-03-23T15:10:11.330Z,23.80
2019-03-23T15:12:41.582Z,22.13
2019-03-23T15:15:16.036Z,18.55
2019-03-23T15:17:48.768Z,29.02
2019-03-23T15:20:17.427Z,26.83
2019-03-23T15:22:45.986Z,19.15
2019-03-23T15:25:14.520Z,24.82
2019-03-23T15:27:43.448Z,16.82
2019-03-23T15:30:12.210Z,21.33
2019-03-23T15:32:40.766Z,25.05
2019-03-23T15:35:09.403Z,22.40
2019-03-23T15:37:38.033Z,18.55
2019-03-23T15:40:11.038Z,26.20
2019-03-23T15:42:39.891Z,24.20
2019-03-23T15:45:10.168Z,22.50
2019-03-23T15:47:38.899Z,18.90
2019-03-23T15:50:08.381Z,18.60
2019-03-23T15:52:37.107Z,21.27
2019-03-23T15:55:10.681Z,15.32
2019-03-23T15:57:39.330Z,14.03
2019-03-23T16:00:11.998Z,21.40
2019-03-23T16:02:41.350Z,19.05
2019-03-23T16:05:10.797Z,14.83
2019-03-23T16:07:43.391Z,14.78
2019-03-23T16:10:12.027Z,17.40
2019-03-23T16:12:40.956Z,17.12
2019-03-23T16:15:11.745Z,17.92
2019-03-23T16:17:42.357Z,21.07
2019-03-23T16:20:13.107Z,26.37
2019-03-23T16:22:41.741Z,18.92
2019-03-23T16:25:11.079Z,21.83
2019-03-23T16:27:40.756Z,18.32
2019-03-23T16:30:13.130Z,17.65
2019-03-23T16:32:41.672Z,19.00
2019-03-23T16:35:11.294Z,20.97
2019-03-23T16:37:40.002Z,15.23
2019-03-23T16:40:11.956Z,20.37
2019-03-23T16:42:45.265Z,16.35
2019-03-23T16:45:11.157Z,17.27
2019-03-23T16:47:39.692Z,17.80
2019-03-23T16:50:12.079Z,15.50
2019-03-23T16:52:41.866Z,21.12
2019-03-23T16:55:12.243Z,23.80
2019-03-23T16:57:40.696Z,23.40
2019-03-23T17:00:12.007Z,20.00
2019-03-23T17:02:43.677Z,15.98
2019-03-23T17:05:13.654Z,16.55
2019-03-23T17:07:42.929Z,20.10
2019-03-23T17:10:13.109Z,17.17
2019-03-23T17:12:43.640Z,15.72
2019-03-23T17:15:13.255Z,19.07
2019-03-23T17:17:43.975Z,23.30
2019-03-23T17:20:13.926Z,19.45
2019-03-23T17:22:42.384Z,22.00
2019-03-23T17:25:12.209Z,23.73
2019-03-23T17:27:41.224Z,17.17
2019-03-23T17:30:15.310Z,19.57
2019-03-23T17:32:47.367Z,14.67
2019-03-23T17:35:17.601Z,22.93
2019-03-23T17:37:50.375Z,19.70
2019-03-23T17:40:20.559Z,23.47
2019-03-23T17:42:54.608Z,24.87
2019-03-23T17:45:23.447Z,26.90
2019-03-23T17:48:01.678Z,26.05
2019-03-23T17:50:30.178Z,26.70
2019-03-23T17:52:58.759Z,27.48
2019-03-23T17:55:28.744Z,13.53
2019-03-23T17:57:57.450Z,22.77
2019-03-23T18:00:27.592Z,23.90
2019-03-23T18:02:56.184Z,20.02
2019-03-23T18:05:27.720Z,23.38
2019-03-23T18:07:56.246Z,20.10
2019-03-23T18:10:24.826Z,23.27
2019-03-23T18:12:53.347Z,34.78
2019-03-23T18:15:23.754Z,19.47
2019-03-23T18:17:53.643Z,30.75
2019-03-23T18:20:22.234Z,20.72
2019-03-23T18:22:50.671Z,27.82
2019-03-23T18:25:19.596Z,29.77
2019-03-23T18:27:48.205Z,24.65
2019-03-23T18:30:28.383Z,21.70
2019-03-23T18:32:58.301Z,27.58
2019-03-23T18:35:26.824Z,34.77
2019-03-23T18:37:55.269Z,24.90
2019-03-23T18:40:24.877Z,20.45
2019-03-23T18:42:54.151Z,23.52
2019-03-23T18:45:22.668Z,25.47
2019-03-23T18:47:52.481Z,22.35
2019-03-23T18:50:21.012Z,23.47
2019-03-23T18:52:49.583Z,21.85
2019-03-23T18:55:18.379Z,23.60
2019-03-23T18:57:48.394Z,26.48
2019-03-23T19:00:42.927Z,19.55
2019-03-23T19:03:11.729Z,23.77
2019-03-23T19:05:40.254Z,25.80
2019-03-23T19:08:11.773Z,21.93
2019-03-23T19:10:39.837Z,27.42
2019-03-23T19:13:08.466Z,21.62
2019-03-23T19:15:38.954Z,18.57
2019-03-23T19:18:07.741Z,27.02
2019-03-23T19:20:37.912Z,17.37
2019-03-23T19:23:06.565Z,21.00
2019-03-23T19:25:35.345Z,21.23
2019-03-23T19:28:03.872Z,25.10
2019-03-23T19:30:32.379Z,24.60
2019-03-23T19:33:00.904Z,24.98
2019-03-23T19:35:30.913Z,25.72
2019-03-23T19:38:03.000Z,32.90
2019-03-23T19:40:31.626Z,41.15
2019-03-23T19:43:00.172Z,40.05
2019-03-23T19:45:29.526Z,39.30
2019-03-23T19:47:58.056Z,39.05
2019-03-23T19:50:26.579Z,41.63
2019-03-23T19:52:55.111Z,47.33
2019-03-23T19:55:23.601Z,47.58
2019-03-23T19:57:54.585Z,54.53
2019-03-23T20:00:22.602Z,34.35
2019-03-23T20:02:53.351Z,27.15
2019-03-23T20:05:24.605Z,32.28
2019-03-23T20:07:53.684Z,29.63
2019-03-23T20:10:22.274Z,33.88
2019-03-23T20:12:52.201Z,38.05
2019-03-23T20:15:20.829Z,39.55
2019-03-23T20:17:50.533Z,43.42
2019-03-23T20:20:20.106Z,45.65
2019-03-23T20:22:49.460Z,52.20
2019-03-23T20:25:17.983Z,46.23
2019-03-23T20:27:46.796Z,39.55
2019-03-23T20:30:18.750Z,34.48
2019-03-23T20:32:47.232Z,36.20
2019-03-23T20:35:16.075Z,20.60
2019-03-23T20:37:47.767Z,27.13
2019-03-23T20:40:16.570Z,31.73
2019-03-23T20:42:49.008Z,26.60
2019-03-23T20:45:28.454Z,21.02
2019-03-23T20:47:57.619Z,25.40
2019-03-23T20:50:26.228Z,25.70
2019-03-23T20:52:56.374Z,31.85
2019-03-23T20:55:29.765Z,22.32
2019-03-23T20:57:58.786Z,33.18
2019-03-23T21:00:27.802Z,18.02
2019-03-23T21:02:56.633Z,23.83
2019-03-23T21:05:33.888Z,20.75
2019-03-23T21:08:00.374Z,27.42
2019-03-23T21:10:30.435Z,17.45
2019-03-23T21:13:00.197Z,17.97
2019-03-23T21:15:30.217Z,17.45
2019-03-23T21:18:04.174Z,29.27
2019-03-23T21:20:34.265Z,21.55
2019-03-23T21:23:02.917Z,26.97
2019-03-23T21:25:31.374Z,31.50
2019-03-23T21:28:01.195Z,27.45
2019-03-23T21:30:29.806Z,25.23
2019-03-23T21:32:58.263Z,21.60
2019-03-23T21:35:26.788Z,18.80
2019-03-23T21:37:58.503Z,30.48
2019-03-23T21:40:27.843Z,29.10
2019-03-23T21:42:59.839Z,23.32
2019-03-23T21:45:30.429Z,19.45
2019-03-23T21:47:59.063Z,26.35
2019-03-23T21:50:28.102Z,21.30
2019-03-23T21:52:56.625Z,24.12
2019-03-23T21:55:26.255Z,28.35
2019-03-23T21:57:54.771Z,26.23
2019-03-23T22:00:34.320Z,29.75
2019-03-23T22:03:04.450Z,32.98
2019-03-23T22:05:34.689Z,33.05
2019-03-23T22:08:11.158Z,19.40
2019-03-23T22:10:39.647Z,26.12
2019-03-23T22:13:08.352Z,29.30
2019-03-23T22:15:36.950Z,22.35
2019-03-23T22:18:05.612Z,24.25
2019-03-23T22:20:34.140Z,25.27
2019-03-23T22:23:02.749Z,28.63
2019-03-23T22:25:31.287Z,33.20
2019-03-23T22:27:59.904Z,26.93
2019-03-23T22:30:29.787Z,34.83
2019-03-23T22:32:58.251Z,28.50
2019-03-23T22:35:27.981Z,33.53
2019-03-23T22:37:57.478Z,25.97
2019-03-23T22:40:28.383Z,29.92
2019-03-23T22:42:57.067Z,25.25
2019-03-23T22:45:27.365Z,35.08
2019-03-23T22:47:56.311Z,37.80
2019-03-23T22:50:24.757Z,33.65
2019-03-23T22:52:54.603Z,30.87
2019-03-23T22:55:24.631Z,40.65
2019-03-23T22:58:00.176Z,40.15
2019-03-23T23:00:33.596Z,38.65
2019-03-23T23:05:30.672Z,49.58
2019-03-23T23:07:59.453Z,45.03
2019-03-23T23:10:29.669Z,34.50
2019-03-23T23:12:58.111Z,31.42
2019-03-23T23:15:29.294Z,35.65
2019-03-23T23:18:00.143Z,33.00
2019-03-23T23:20:28.784Z,34.20
2019-03-23T23:22:57.904Z,32.23
2019-03-23T23:25:27.209Z,34.18
2019-03-23T23:28:05.958Z,35.25
2019-03-23T23:30:34.507Z,33.60
2019-03-23T23:33:03.022Z,43.90
2019-03-23T23:35:31.488Z,35.67
2019-03-23T23:37:59.967Z,27.40
2019-03-23T23:40:28.480Z,32.00
2019-03-23T23:42:59.282Z,31.70
2019-03-23T23:45:29.117Z,32.48
2019-03-23T23:47:59.073Z,31.25
2019-03-23T23:50:27.576Z,31.27
2019-03-23T23:52:56.059Z,36.77
2019-03-23T23:55:26.161Z,33.00
2019-03-23T23:57:54.672Z,26.77
